Accueil
METAR-TAF:

METAR-TAF

Aéroports :

Umiujaq, Québec, Canada

latitude: 56-32N, longitude: 076-31W, altitude: 71 m

Observation

Le bulletin a été fait il y a 32 minutes, à 21:00 UTC
Vent 20 kt de est avec des rafales jusqu'à 26 kt
Température -1°C
Humidité 54%
Pression 1002 hPa
Visibilité: 24.1 km
Quelques nuages à une hauteur de 3700 ft
Nuages fragmentés à une hauteur de 16000 ft

METAR: CYMU 192100Z 09020G26KT 15SM FEW037 BKN160 M01/M09 A2959 RMK CF1AC4 LAST STFD OBS/NEXT 201200Z SLP027

Heure: 17:32 (21:32 UTC)


TAF: absent

Observations et prévisions météorologiques de plus de 4000 aéroports (messages METAR et TAF).

Les stations disponibles sont représentées par des disques jaunes et rouges sur la carte.

Passer la souris dessus pour voir le nom de la station.

Cliquer dessus pour voir les observations et prévisions météorologiques.

Pour changer de carte: cliquez sur les boutons verts avec une croix noire pour zoomer, sur le bouton vert avec un tiret pour effectuer un zoom arrière, ou sur les flèches vertes pour les cartes adjacentes.


METAR-TAF: